Time;durP1;ratioP1;P1;durP2;ratioP2;P2;SDS_P1;SDS_P2;PMS_P1;PMS_P2;Temp;Humidity;BMP_temperature;BMP_pressure;BME280_temperature;BME280_humidity;BME280_pressure;Samples;Min_cycle;Max_cycle;Signal;HPM_P1;HPM_P2
2020/12/16 00:01:40;;;;;;;10.18;8.85;;;9.50;99.90;;;;;;6211743;23;20548;-80
2020/12/16 00:04:08;;;;;;;13.40;9.90;;;9.50;99.90;;;;;;6212002;23;20867;-81
2020/12/16 00:06:34;;;;;;;10.82;8.77;;;9.60;99.90;;;;;;6212173;23;20891;-82
2020/12/16 00:09:00;;;;;;;8.40;7.60;;;9.60;99.90;;;;;;6211317;23;20215;-81
2020/12/16 00:11:29;;;;;;;10.82;7.85;;;9.60;99.90;;;;;;6211863;23;20218;-81
2020/12/16 00:13:54;;;;;;;10.30;9.30;;;9.70;99.90;;;;;;6186269;23;20176;-81
2020/12/16 00:16:20;;;;;;;7.73;7.03;;;9.80;99.90;;;;;;6212969;23;20184;-81
2020/12/16 00:18:46;;;;;;;8.00;7.23;;;9.80;99.90;;;;;;6213931;23;20571;-81
2020/12/16 00:21:12;;;;;;;7.90;7.20;;;9.90;99.90;;;;;;6211865;23;20595;-81
2020/12/16 00:23:38;;;;;;;7.30;6.70;;;9.90;99.90;;;;;;6212006;23;20513;-81
2020/12/16 00:26:03;;;;;;;7.63;7.03;;;10.00;99.90;;;;;;6185173;23;20173;-81
2020/12/16 00:28:32;;;;;;;8.90;7.30;;;10.00;99.90;;;;;;6184397;23;20153;-81
2020/12/16 00:30:59;;;;;;;7.15;6.50;;;10.10;99.90;;;;;;6211522;23;20149;-80
2020/12/16 00:33:24;;;;;;;7.28;6.47;;;10.10;99.90;;;;;;6188159;23;20488;-81
2020/12/16 00:35:50;;;;;;;7.20;6.40;;;10.10;99.90;;;;;;6212093;23;20161;-81
2020/12/16 00:38:16;;;;;;;6.20;5.70;;;10.10;99.90;;;;;;6213196;23;20622;-81
2020/12/16 00:40:41;;;;;;;8.00;7.20;;;10.10;99.90;;;;;;6213208;23;20223;-81
2020/12/16 00:43:07;;;;;;;7.10;6.50;;;10.10;99.90;;;;;;6187231;23;20232;-81
2020/12/16 00:45:33;;;;;;;6.50;5.90;;;10.10;99.90;;;;;;6213765;23;20164;-80
2020/12/16 00:47:59;;;;;;;7.40;6.70;;;10.20;99.90;;;;;;6213328;23;21059;-81
2020/12/16 00:50:26;;;;;;;6.28;5.70;;;10.20;99.90;;;;;;6186790;23;20149;-81
2020/12/16 00:52:59;;;;;;;5.15;4.75;;;10.30;99.90;;;;;;6213863;23;20130;-81
2020/12/16 00:55:26;;;;;;;6.65;6.05;;;10.20;99.90;;;;;;6186957;23;20184;-81
2020/12/16 00:57:54;;;;;;;5.65;4.95;;;10.20;99.90;;;;;;6186509;23;20168;-80
2020/12/16 01:00:20;;;;;;;6.32;5.75;;;10.20;99.90;;;;;;6187012;23;20555;-81
2020/12/16 01:02:50;;;;;;;5.88;5.35;;;10.10;99.90;;;;;;6163035;23;20149;-80
2020/12/16 01:05:28;;;;;;;5.57;5.07;;;10.10;99.90;;;;;;6187100;23;20615;-80
2020/12/16 01:07:55;;;;;;;6.32;5.75;;;10.10;99.90;;;;;;6213379;23;20133;-80
2020/12/16 01:10:21;;;;;;;6.28;5.68;;;10.10;99.90;;;;;;6189912;23;20776;-80
2020/12/16 01:12:49;;;;;;;6.45;5.82;;;10.10;99.90;;;;;;6187457;23;20482;-80
2020/12/16 01:15:22;;;;;;;6.85;6.13;;;10.10;99.90;;;;;;6187968;23;20619;-80
2020/12/16 01:17:54;;;;;;;5.80;5.30;;;10.10;99.90;;;;;;6186794;23;20161;-81
2020/12/16 01:20:31;;;;;;;5.32;4.82;;;10.10;99.90;;;;;;6186801;23;20455;-81
2020/12/16 01:22:58;;;;;;;7.93;7.18;;;10.10;99.90;;;;;;6186754;23;20191;-80
2020/12/16 01:25:24;;;;;;;6.60;6.10;;;10.10;99.90;;;;;;6186267;23;20650;-79
2020/12/16 01:27:56;;;;;;;6.03;5.50;;;10.10;99.90;;;;;;6186048;23;20481;-79
2020/12/16 01:30:22;;;;;;;6.00;5.45;;;10.10;99.90;;;;;;6186465;23;20523;-79
2020/12/16 01:32:51;;;;;;;7.43;6.63;;;10.10;99.90;;;;;;6186937;23;20149;-80
2020/12/16 01:35:23;;;;;;;5.80;5.20;;;10.10;99.90;;;;;;6187335;23;20168;-79
2020/12/16 01:37:49;;;;;;;7.03;6.32;;;10.10;99.90;;;;;;6186116;23;20176;-80
2020/12/16 01:40:16;;;;;;;7.90;7.10;;;10.10;99.90;;;;;;6186322;23;20145;-80
2020/12/16 01:42:43;;;;;;;6.50;5.82;;;10.10;99.90;;;;;;6186519;23;20149;-80
2020/12/16 01:45:16;;;;;;;6.95;6.15;;;10.20;99.90;;;;;;6213409;23;20171;-80
2020/12/16 01:47:45;;;;;;;4.85;4.32;;;10.20;99.90;;;;;;6190607;23;20149;-80
2020/12/16 01:50:16;;;;;;;6.45;5.80;;;10.20;99.90;;;;;;6161405;23;20145;-80
2020/12/16 01:52:45;;;;;;;6.72;5.88;;;10.20;99.90;;;;;;6186619;23;20543;-80
2020/12/16 01:55:12;;;;;;;7.22;5.93;;;10.20;99.90;;;;;;6186267;23;20244;-80
2020/12/16 01:57:53;;;;;;;6.38;5.78;;;10.20;99.90;;;;;;6185913;23;20527;-80
2020/12/16 02:00:24;;;;;;;4.80;4.30;;;10.20;99.90;;;;;;6212896;23;20537;-80
2020/12/16 02:02:56;;;;;;;5.07;4.68;;;10.20;99.90;;;;;;6186593;23;20187;-80
2020/12/16 02:05:48;;;;;;;6.13;5.60;;;10.30;99.90;;;;;;6186415;23;20191;-80
2020/12/16 02:08:20;;;;;;;5.88;5.28;;;10.30;99.90;;;;;;6185778;23;20133;-80
2020/12/16 02:10:48;;;;;;;6.20;5.60;;;10.30;99.90;;;;;;6161563;23;20145;-80
2020/12/16 02:13:19;;;;;;;7.55;5.50;;;10.30;99.90;;;;;;6163814;23;20588;-80
2020/12/16 02:15:52;;;;;;;6.10;5.60;;;10.30;99.90;;;;;;6181561;23;20492;-80
2020/12/16 02:18:20;;;;;;;8.07;6.30;;;10.20;99.90;;;;;;6180848;23;20174;-80
2020/12/16 02:20:51;;;;;;;5.00;4.50;;;10.20;99.90;;;;;;6181248;23;20612;-80
2020/12/16 02:23:18;;;;;;;5.80;5.07;;;10.30;99.90;;;;;;6182634;23;20149;-80
2020/12/16 02:25:48;;;;;;;7.55;6.20;;;10.30;99.90;;;;;;6187534;23;20166;-80
2020/12/16 02:28:14;;;;;;;6.40;5.80;;;10.30;99.90;;;;;;6180885;23;20150;-79
2020/12/16 02:30:44;;;;;;;6.00;5.13;;;10.30;99.90;;;;;;6181175;23;20161;-80
2020/12/16 02:33:25;;;;;;;10.68;6.05;;;10.30;99.90;;;;;;6182035;23;20451;-81
2020/12/16 02:36:00;;;;;;;6.13;5.50;;;10.30;99.90;;;;;;6183478;23;20506;-79
2020/12/16 02:38:47;;;;;;;9.70;6.55;;;10.30;99.90;;;;;;6180416;23;20216;-80
2020/12/16 02:41:16;;;;;;;6.53;5.78;;;10.30;99.90;;;;;;6181098;23;20200;-79
2020/12/16 02:43:42;;;;;;;7.70;6.57;;;10.20;99.90;;;;;;6156357;23;20161;-80
2020/12/16 02:46:08;;;;;;;6.23;5.67;;;10.20;99.90;;;;;;6156697;23;20254;-80
2020/12/16 02:48:34;;;;;;;6.50;5.90;;;10.20;99.90;;;;;;6155964;23;20154;-81
2020/12/16 02:51:02;;;;;;;6.35;5.70;;;10.10;99.90;;;;;;6181363;23;20146;-80
2020/12/16 02:53:30;;;;;;;5.93;5.15;;;10.10;99.90;;;;;;6181171;23;20160;-79
2020/12/16 02:56:14;;;;;;;5.95;5.35;;;10.10;99.90;;;;;;6182753;23;20165;-80
2020/12/16 02:58:50;;;;;;;7.93;6.25;;;10.00;99.90;;;;;;6180508;23;20161;-79
2020/12/16 03:01:16;;;;;;;6.05;5.55;;;10.00;99.90;;;;;;6186732;23;20141;-80
2020/12/16 03:04:05;;;;;;;7.00;6.35;;;10.00;99.90;;;;;;6153167;23;20161;-80
2020/12/16 03:06:38;;;;;;;7.70;6.85;;;10.00;99.90;;;;;;6181569;23;20150;-80
2020/12/16 03:09:10;;;;;;;7.35;6.30;;;10.00;99.90;;;;;;6180325;23;20134;-80
2020/12/16 03:11:37;;;;;;;8.77;7.68;;;9.90;99.90;;;;;;6181011;23;20176;-80
2020/12/16 03:14:06;;;;;;;9.30;8.38;;;9.90;99.90;;;;;;6156722;23;20149;-80
2020/12/16 03:16:32;;;;;;;7.80;7.00;;;9.90;99.90;;;;;;6179814;23;20157;-80
2020/12/16 03:19:10;;;;;;;9.57;8.68;;;9.80;99.90;;;;;;6180338;23;20535;-79
2020/12/16 03:21:37;;;;;;;9.70;8.50;;;9.80;99.90;;;;;;6180610;23;20142;-79
2020/12/16 03:24:23;;;;;;;7.47;6.82;;;9.80;99.90;;;;;;6181709;23;20159;-80
2020/12/16 03:27:09;;;;;;;7.53;6.82;;;9.80;99.90;;;;;;6165773;23;20519;-80
2020/12/16 03:29:59;;;;;;;11.68;10.10;;;9.80;99.90;;;;;;6180727;23;20137;-80
2020/12/16 03:32:43;;;;;;;10.80;9.70;;;9.80;99.90;;;;;;6182016;23;20130;-80
2020/12/16 03:35:19;;;;;;;11.57;10.10;;;9.80;99.90;;;;;;6180874;23;20164;-80
2020/12/16 03:37:47;;;;;;;11.02;9.60;;;9.80;99.90;;;;;;6156702;23;20235;-80
2020/12/16 03:40:14;;;;;;;10.23;9.23;;;9.70;99.90;;;;;;6184311;23;20192;-80
2020/12/16 03:42:49;;;;;;;11.77;10.15;;;9.70;99.90;;;;;;6181006;23;20133;-80
2020/12/16 03:45:15;;;;;;;9.00;8.10;;;9.70;99.90;;;;;;6180577;23;20193;-80
2020/12/16 03:47:44;;;;;;;11.48;10.27;;;9.80;99.90;;;;;;6180090;23;20537;-80
2020/12/16 03:50:10;;;;;;;10.20;9.10;;;9.80;99.90;;;;;;6180507;23;20205;-80
2020/12/16 03:52:36;;;;;;;10.38;9.10;;;9.80;99.90;;;;;;6180804;23;20604;-81
2020/12/16 03:55:21;;;;;;;11.55;9.65;;;9.80;99.90;;;;;;6181341;23;20170;-81
2020/12/16 03:58:02;;;;;;;10.45;9.30;;;9.80;99.90;;;;;;6180322;23;20172;-81
2020/12/16 04:00:36;;;;;;;10.57;9.45;;;9.80;99.90;;;;;;6180242;23;20165;-80
2020/12/16 04:03:06;;;;;;;9.00;8.10;;;9.70;99.90;;;;;;6180558;23;20464;-81
2020/12/16 04:05:45;;;;;;;7.18;6.10;;;9.80;99.90;;;;;;6133794;23;20174;-80
2020/12/16 04:08:11;;;;;;;9.70;8.33;;;9.70;99.90;;;;;;6180078;23;20304;-81
2020/12/16 04:10:55;;;;;;;9.18;7.95;;;9.70;99.90;;;;;;6181567;23;20493;-81
2020/12/16 04:13:28;;;;;;;7.72;7.00;;;9.70;99.90;;;;;;6180729;23;20619;-80
2020/12/16 04:15:58;;;;;;;8.43;7.57;;;9.60;99.90;;;;;;6186440;23;20632;-81
2020/12/16 04:18:24;;;;;;;9.10;7.65;;;9.60;99.90;;;;;;6179873;23;20185;-80
2020/12/16 04:20:50;;;;;;;8.70;7.90;;;9.70;99.90;;;;;;6180128;23;20144;-80
2020/12/16 04:23:16;;;;;;;8.70;7.83;;;9.60;99.90;;;;;;6181033;23;20173;-81
2020/12/16 04:25:49;;;;;;;9.25;8.35;;;9.60;99.90;;;;;;6180601;23;20168;-81
2020/12/16 04:28:18;;;;;;;8.57;6.80;;;9.60;99.90;;;;;;6180118;23;20157;-80
2020/12/16 04:30:44;;;;;;;8.50;7.60;;;9.60;99.90;;;;;;6179808;23;20156;-80
2020/12/16 04:33:11;;;;;;;11.27;10.18;;;9.60;99.90;;;;;;6181134;23;20207;-80
2020/12/16 04:35:38;;;;;;;8.20;7.05;;;9.60;99.90;;;;;;6180256;23;20288;-81
2020/12/16 04:38:04;;;;;;;9.20;7.72;;;9.60;99.90;;;;;;6154605;23;20825;-81
2020/12/16 04:40:35;;;;;;;9.75;8.75;;;9.60;99.90;;;;;;6180022;23;20138;-81
2020/12/16 04:43:11;;;;;;;10.05;8.95;;;9.60;99.90;;;;;;6180355;23;20130;-80
2020/12/16 04:45:42;;;;;;;9.70;7.93;;;9.60;99.90;;;;;;6155684;23;20173;-80
2020/12/16 04:48:13;;;;;;;9.07;8.13;;;9.60;99.90;;;;;;6180114;23;20150;-80
2020/12/16 04:50:42;;;;;;;7.72;7.03;;;9.60;99.90;;;;;;6156241;23;20134;-80
2020/12/16 04:53:12;;;;;;;9.02;8.13;;;9.60;99.90;;;;;;6186447;23;20149;-80
2020/12/16 04:55:58;;;;;;;10.15;8.77;;;9.60;99.90;;;;;;6180392;23;20170;-80
2020/12/16 04:58:46;;;;;;;8.10;7.15;;;9.70;99.90;;;;;;6168720;23;20182;-80
2020/12/16 05:01:13;;;;;;;8.90;8.00;;;9.70;99.90;;;;;;6180125;23;20651;-79
2020/12/16 05:03:45;;;;;;;8.98;8.05;;;9.70;99.90;;;;;;6156966;23;20639;-80
2020/12/16 05:06:40;;;;;;;8.20;7.40;;;9.80;99.90;;;;;;6155205;23;20620;-79
2020/12/16 05:09:14;;;;;;;10.23;8.63;;;9.70;99.90;;;;;;6179860;23;20236;-80
2020/12/16 05:11:44;;;;;;;8.40;7.60;;;9.70;99.90;;;;;;6181838;23;20146;-79
2020/12/16 05:14:18;;;;;;;10.50;9.25;;;9.80;99.90;;;;;;6179948;23;20156;-80
2020/12/16 05:16:51;;;;;;;13.18;9.43;;;9.70;99.90;;;;;;6198423;23;20532;-80
2020/12/16 05:19:36;;;;;;;10.07;9.05;;;9.70;99.90;;;;;;6161889;23;20192;-80
2020/12/16 05:22:19;;;;;;;9.93;7.85;;;9.70;99.90;;;;;;6185483;23;20215;-81
2020/12/16 05:24:53;;;;;;;11.75;8.45;;;9.70;99.90;;;;;;6213905;23;20308;-80
2020/12/16 05:27:33;;;;;;;9.35;8.45;;;9.70;99.90;;;;;;6186367;23;20184;-80
2020/12/16 05:30:02;;;;;;;8.35;7.55;;;9.70;99.90;;;;;;6219635;23;20149;-79
2020/12/16 05:32:31;;;;;;;9.93;8.40;;;9.70;99.90;;;;;;6213441;23;20240;-81
2020/12/16 05:34:59;;;;;;;11.13;9.30;;;9.70;99.90;;;;;;6213511;23;20231;-80
2020/12/16 05:37:32;;;;;;;9.68;8.73;;;9.70;99.90;;;;;;6187113;23;20149;-80
2020/12/16 05:39:59;;;;;;;9.30;8.30;;;9.70;99.90;;;;;;6213992;23;20134;-80
2020/12/16 05:42:27;;;;;;;9.25;8.40;;;9.60;99.90;;;;;;6187139;23;20202;-80
2020/12/16 05:44:56;;;;;;;9.07;8.27;;;9.60;99.90;;;;;;6187543;23;20176;-80
2020/12/16 05:47:22;;;;;;;10.18;8.75;;;9.60;99.90;;;;;;6213617;23;20145;-81
2020/12/16 05:49:48;;;;;;;8.52;7.72;;;9.60;99.90;;;;;;6213883;23;20213;-80
2020/12/16 05:52:14;;;;;;;8.20;7.37;;;9.60;99.90;;;;;;6213628;23;20153;-80
2020/12/16 05:54:39;;;;;;;9.00;8.10;;;9.60;99.90;;;;;;6213538;23;20501;-80
2020/12/16 05:57:09;;;;;;;8.60;7.67;;;9.60;99.90;;;;;;6213459;23;20211;-81
2020/12/16 05:59:35;;;;;;;8.07;7.28;;;9.60;99.90;;;;;;6186166;23;20190;-81
2020/12/16 06:02:04;;;;;;;8.85;7.72;;;9.60;99.90;;;;;;6187060;23;20476;-80
2020/12/16 06:04:33;;;;;;;8.50;7.70;;;9.60;99.90;;;;;;6213375;23;20520;-80
2020/12/16 06:06:59;;;;;;;8.20;7.40;;;9.50;99.90;;;;;;6219276;23;20168;-82
2020/12/16 06:09:25;;;;;;;8.93;8.10;;;9.50;99.90;;;;;;6187547;23;20763;-81
2020/12/16 06:12:06;;;;;;;8.10;7.10;;;9.50;99.90;;;;;;6191634;23;20153;-81
2020/12/16 06:14:35;;;;;;;9.57;7.18;;;9.50;99.90;;;;;;6148420;23;20199;-80
2020/12/16 06:17:11;;;;;;;8.48;7.63;;;9.50;99.90;;;;;;6214400;23;20164;-81
2020/12/16 06:19:43;;;;;;;10.63;7.85;;;9.50;99.90;;;;;;6213924;23;20231;-81
2020/12/16 06:22:10;;;;;;;9.48;8.10;;;9.50;99.90;;;;;;6214582;23;20168;-81
2020/12/16 06:24:44;;;;;;;10.93;8.80;;;9.40;99.90;;;;;;6214148;23;20574;-81
2020/12/16 06:27:11;;;;;;;10.60;8.88;;;9.40;99.90;;;;;;6190543;23;20141;-80
2020/12/16 06:29:48;;;;;;;9.77;8.40;;;9.40;99.90;;;;;;6173267;23;20210;-81
2020/12/16 06:32:42;;;;;;;13.95;10.10;;;9.40;99.90;;;;;;6166547;23;20190;-80
2020/12/16 06:35:16;;;;;;;11.15;9.25;;;9.40;99.90;;;;;;6189860;23;20181;-78
2020/12/16 06:37:42;;;;;;;8.65;7.75;;;9.40;99.90;;;;;;6145066;23;20149;-79
2020/12/16 06:40:08;;;;;;;8.17;7.40;;;9.40;99.90;;;;;;6182160;23;20170;-79
2020/12/16 06:42:34;;;;;;;9.70;8.60;;;9.40;99.90;;;;;;6200801;23;20544;-79
2020/12/16 06:45:11;;;;;;;10.68;8.95;;;9.40;99.90;;;;;;6176712;23;20569;-78
2020/12/16 06:47:37;;;;;;;9.70;8.02;;;9.40;99.90;;;;;;6196649;23;20172;-77
2020/12/16 06:50:19;;;;;;;9.47;8.00;;;9.40;99.90;;;;;;6224127;23;20165;-77
2020/12/16 06:53:15;;;;;;;10.23;8.00;;;9.40;99.90;;;;;;6190916;23;20594;-79
2020/12/16 06:56:04;;;;;;;9.70;7.90;;;9.40;99.90;;;;;;6162111;23;20505;-79
2020/12/16 06:58:39;;;;;;;10.57;9.48;;;9.40;99.90;;;;;;6164396;23;20515;-78
2020/12/16 07:01:18;;;;;;;9.70;8.80;;;9.30;99.90;;;;;;6164137;23;20160;-79
2020/12/16 07:03:44;;;;;;;10.40;9.35;;;9.40;99.90;;;;;;6162235;23;20467;-80
2020/12/16 07:06:12;;;;;;;9.32;8.30;;;9.40;99.90;;;;;;6186584;23;20222;-79
2020/12/16 07:08:40;;;;;;;9.50;8.48;;;9.40;99.90;;;;;;6160907;23;20153;-79
2020/12/16 07:11:07;;;;;;;7.95;7.18;;;9.40;99.90;;;;;;6187799;23;20176;-79
2020/12/16 07:13:35;;;;;;;9.70;8.75;;;9.40;99.90;;;;;;6162532;23;20176;-79
2020/12/16 07:16:09;;;;;;;10.13;8.68;;;9.40;99.90;;;;;;6132249;23;20190;-79
2020/12/16 07:19:01;;;;;;;11.60;9.75;;;9.40;99.90;;;;;;6180577;23;20227;-79
2020/12/16 07:21:31;;;;;;;11.00;8.88;;;9.40;99.90;;;;;;6154434;23;20150;-79
2020/12/16 07:24:16;;;;;;;9.77;8.70;;;9.40;99.90;;;;;;6131302;23;20580;-79
2020/12/16 07:26:46;;;;;;;11.38;9.80;;;9.30;99.90;;;;;;6156473;23;20730;-79
2020/12/16 07:29:24;;;;;;;12.63;10.65;;;9.40;99.90;;;;;;6155394;23;20142;-79
2020/12/16 07:32:24;;;;;;;10.38;9.35;;;9.40;99.90;;;;;;6155605;23;20177;-79
2020/12/16 07:34:59;;;;;;;8.77;7.80;;;9.40;99.90;;;;;;6179838;23;20646;-79
2020/12/16 07:38:18;;;;;;;;;;;;;;;;;;;;;
2020/12/16 07:45:37;;;;;;;10.65;9.52;;;9.40;99.90;;;;;;6179636;23;20177;-81
2020/12/16 07:48:05;;;;;;;10.73;8.55;;;9.40;99.90;;;;;;6180480;23;20149;-81
2020/12/16 07:50:31;;;;;;;10.55;7.68;;;9.30;99.90;;;;;;6182289;23;20146;-80
2020/12/16 07:53:08;;;;;;;8.80;7.90;;;9.30;99.90;;;;;;6180418;23;20517;-81
2020/12/16 07:55:39;;;;;;;9.35;8.32;;;9.30;99.90;;;;;;6181245;23;20639;-81
2020/12/16 07:58:08;;;;;;;9.95;8.85;;;9.30;99.90;;;;;;6158167;23;20166;-81
2020/12/16 08:00:34;;;;;;;9.75;8.65;;;9.30;99.90;;;;;;6183493;23;20169;-82
2020/12/16 08:03:01;;;;;;;11.30;8.77;;;9.30;99.90;;;;;;6183199;23;20208;-83
2020/12/16 08:05:27;;;;;;;9.35;8.45;;;9.30;99.90;;;;;;6182000;23;20161;-83
2020/12/16 08:08:00;;;;;;;10.27;9.23;;;9.30;99.90;;;;;;6201088;23;20220;-81
2020/12/16 08:10:28;;;;;;;11.05;7.75;;;9.30;99.90;;;;;;6182020;23;20243;-81
2020/12/16 08:12:54;;;;;;;11.00;8.18;;;9.40;99.90;;;;;;6181189;23;20246;-83
2020/12/16 08:15:20;;;;;;;10.13;8.95;;;9.40;99.90;;;;;;6183841;23;20161;-81
2020/12/16 08:17:49;;;;;;;9.70;8.23;;;9.40;99.90;;;;;;6226643;23;20161;-81
2020/12/16 08:20:17;;;;;;;13.98;10.32;;;9.50;99.90;;;;;;6189299;23;20145;-82
2020/12/16 08:22:44;;;;;;;11.32;10.13;;;9.50;99.90;;;;;;6211781;23;20617;-82
2020/12/16 08:25:11;;;;;;;10.20;8.70;;;9.60;99.90;;;;;;6213291;23;20215;-81
2020/12/16 08:27:48;;;;;;;10.18;8.93;;;9.70;99.90;;;;;;6184828;23;20579;-81
2020/12/16 08:30:17;;;;;;;9.85;7.90;;;9.80;99.90;;;;;;6160831;23;20193;-82
2020/12/16 08:33:01;;;;;;;11.02;9.93;;;9.90;99.90;;;;;;6221260;23;20149;-82
2020/12/16 08:35:29;;;;;;;9.98;8.70;;;10.00;99.90;;;;;;6189211;23;20172;-82
2020/12/16 08:37:59;;;;;;;10.27;9.13;;;10.00;99.90;;;;;;6189046;23;20224;-84
2020/12/16 08:40:26;;;;;;;9.25;7.93;;;10.10;99.90;;;;;;6222938;23;20167;-83
2020/12/16 08:42:52;;;;;;;9.93;9.00;;;10.20;99.90;;;;;;6222927;23;20164;-83
2020/12/16 08:45:19;;;;;;;9.37;8.47;;;10.20;99.90;;;;;;6224216;23;20189;-82
2020/12/16 08:47:46;;;;;;;10.27;9.27;;;10.30;99.90;;;;;;6187619;23;20133;-83
2020/12/16 08:50:16;;;;;;;8.48;7.25;;;10.40;99.90;;;;;;6211288;23;20145;-84
2020/12/16 08:52:47;;;;;;;10.55;9.35;;;10.50;99.90;;;;;;6211499;23;20134;-82
2020/12/16 08:55:21;;;;;;;8.48;7.57;;;10.50;99.90;;;;;;6211348;23;20512;-82
2020/12/16 08:57:51;;;;;;;9.55;7.95;;;10.60;99.90;;;;;;6212602;23;20229;-83
2020/12/16 09:00:17;;;;;;;10.70;6.97;;;10.60;99.90;;;;;;6217125;23;20588;-84
2020/12/16 09:02:43;;;;;;;10.00;8.18;;;10.80;99.90;;;;;;6187086;23;20475;-82
2020/12/16 09:05:09;;;;;;;9.67;7.97;;;10.80;99.90;;;;;;6212172;23;20247;-83
2020/12/16 09:07:35;;;;;;;8.53;7.70;;;10.90;99.90;;;;;;6186130;23;20145;-83
2020/12/16 09:10:02;;;;;;;7.07;6.20;;;11.00;99.90;;;;;;6212989;23;20586;-82
2020/12/16 09:12:28;;;;;;;8.25;6.97;;;11.10;99.90;;;;;;6162776;23;20556;-82
2020/12/16 09:14:59;;;;;;;7.72;7.03;;;11.10;99.90;;;;;;6213901;23;20177;-82
2020/12/16 09:17:27;;;;;;;7.93;7.13;;;11.20;99.90;;;;;;6212252;23;20176;-82
2020/12/16 09:19:53;;;;;;;11.57;8.02;;;11.30;99.90;;;;;;6212520;23;20266;-83
2020/12/16 09:22:27;;;;;;;7.35;6.65;;;11.30;99.90;;;;;;6213046;23;20141;-82
2020/12/16 09:24:55;;;;;;;6.68;6.07;;;11.40;99.90;;;;;;6186398;23;20771;-82
2020/12/16 09:27:21;;;;;;;6.68;5.93;;;11.40;99.90;;;;;;6212793;23;20156;-83
2020/12/16 09:29:48;;;;;;;6.70;6.00;;;11.40;99.90;;;;;;6186604;23;20484;-83
2020/12/16 09:32:15;;;;;;;7.70;7.00;;;11.50;99.90;;;;;;6213445;23;20137;-82
2020/12/16 09:34:44;;;;;;;7.18;6.38;;;11.60;99.90;;;;;;6213161;23;20197;-82
2020/12/16 09:37:14;;;;;;;8.00;7.20;;;11.60;99.90;;;;;;6187133;23;20157;-82
2020/12/16 09:39:41;;;;;;;8.32;7.50;;;11.60;99.90;;;;;;6186613;23;20177;-83
2020/12/16 09:42:15;;;;;;;7.70;6.65;;;11.60;99.90;;;;;;6187304;23;20156;-82
2020/12/16 09:44:42;;;;;;;7.47;6.78;;;11.70;99.90;;;;;;6187199;23;20473;-84
2020/12/16 09:47:12;;;;;;;7.30;6.70;;;11.60;99.90;;;;;;6213525;23;20152;-83
2020/12/16 09:49:39;;;;;;;7.05;6.43;;;11.60;99.90;;;;;;6214268;23;20133;-83
2020/12/16 09:52:22;;;;;;;6.63;6.00;;;11.60;99.90;;;;;;6213312;23;20144;-83
2020/12/16 09:54:48;;;;;;;8.25;6.85;;;11.70;99.90;;;;;;6213267;23;20211;-82
2020/12/16 09:57:13;;;;;;;7.33;6.63;;;11.60;99.90;;;;;;6212889;23;20149;-82
2020/12/16 09:59:39;;;;;;;8.10;7.30;;;11.60;99.90;;;;;;6213029;23;20169;-82
2020/12/16 10:02:05;;;;;;;7.10;6.43;;;11.60;99.90;;;;;;6186459;23;20199;-82
2020/12/16 10:04:31;;;;;;;8.73;6.50;;;11.70;99.90;;;;;;6213463;23;20564;-81
2020/12/16 10:06:57;;;;;;;8.33;7.53;;;11.70;99.90;;;;;;6213274;23;20525;-80
2020/12/16 10:09:23;;;;;;;5.97;5.47;;;11.80;99.90;;;;;;6161168;23;20520;-81
2020/12/16 10:11:49;;;;;;;7.37;6.67;;;11.90;99.90;;;;;;6213080;23;20149;-80
2020/12/16 10:14:17;;;;;;;8.07;7.28;;;11.90;99.90;;;;;;6213172;23;20524;-80
2020/12/16 10:16:47;;;;;;;7.40;6.70;;;12.00;99.90;;;;;;6213231;23;20501;-82
2020/12/16 10:19:17;;;;;;;6.97;6.38;;;12.00;99.90;;;;;;6211701;23;20663;-80
2020/12/16 10:21:47;;;;;;;9.80;7.40;;;12.00;99.90;;;;;;6210913;23;20129;-78
2020/12/16 10:24:14;;;;;;;7.03;6.32;;;12.00;99.90;;;;;;6211937;23;20142;-80
2020/12/16 10:26:40;;;;;;;7.95;7.15;;;12.00;99.90;;;;;;6212824;23;20145;-80
2020/12/16 10:29:05;;;;;;;10.30;8.20;;;12.00;99.90;;;;;;6211541;23;20180;-82
2020/12/16 10:31:31;;;;;;;9.47;7.70;;;12.00;99.90;;;;;;6211512;23;20146;-81
2020/12/16 10:33:57;;;;;;;9.00;8.17;;;12.10;99.90;;;;;;6212091;23;20141;-82
2020/12/16 10:36:23;;;;;;;7.77;6.70;;;12.00;99.90;;;;;;6213081;23;20267;-82
2020/12/16 10:38:48;;;;;;;6.40;5.80;;;12.00;99.90;;;;;;6212315;23;20204;-80
2020/12/16 10:41:14;;;;;;;8.10;7.40;;;12.00;99.90;;;;;;6186208;23;20776;-80
2020/12/16 10:43:40;;;;;;;7.13;6.43;;;12.00;99.90;;;;;;6186009;23;20224;-80
2020/12/16 10:46:07;;;;;;;7.40;6.70;;;12.10;99.90;;;;;;6212184;23;20157;-80
2020/12/16 10:48:33;;;;;;;7.50;6.88;;;12.20;99.90;;;;;;6211755;23;20156;-80
2020/12/16 10:50:59;;;;;;;8.20;7.37;;;12.20;99.90;;;;;;6186110;23;20670;-81
2020/12/16 10:53:25;;;;;;;8.77;7.87;;;12.20;99.90;;;;;;6212777;23;20191;-80
2020/12/16 10:55:53;;;;;;;6.75;6.15;;;12.30;99.90;;;;;;6212237;23;20165;-81
2020/12/16 10:58:20;;;;;;;7.72;6.57;;;12.30;99.90;;;;;;6164121;23;20184;-81
2020/12/16 11:00:46;;;;;;;8.23;6.88;;;12.30;99.90;;;;;;6191383;23;20156;-81
2020/12/16 11:03:12;;;;;;;7.50;6.80;;;12.40;99.90;;;;;;6189966;23;20576;-81
2020/12/16 11:05:37;;;;;;;9.30;8.50;;;12.40;99.90;;;;;;6219273;23;20614;-81
2020/12/16 11:08:03;;;;;;;6.60;6.10;;;12.30;99.90;;;;;;6211794;23;20661;-81
2020/12/16 11:10:29;;;;;;;8.30;7.50;;;12.40;99.90;;;;;;6159969;23;20161;-81
2020/12/16 11:12:55;;;;;;;6.93;6.33;;;12.50;99.90;;;;;;6212073;23;20510;-81
2020/12/16 11:15:20;;;;;;;6.67;6.07;;;12.50;99.90;;;;;;6211892;23;20623;-81
2020/12/16 11:17:46;;;;;;;7.80;7.10;;;12.50;99.90;;;;;;6211169;23;20664;-80
2020/12/16 11:20:12;;;;;;;7.33;6.70;;;12.50;99.90;;;;;;6211342;23;20141;-81
2020/12/16 11:22:38;;;;;;;6.50;5.90;;;12.60;99.90;;;;;;6212224;23;20141;-81
2020/12/16 11:25:05;;;;;;;7.20;6.00;;;12.70;99.90;;;;;;6211863;23;20173;-81
2020/12/16 11:27:31;;;;;;;6.97;6.28;;;12.70;99.90;;;;;;6185065;23;20922;-82
2020/12/16 11:29:57;;;;;;;7.43;6.83;;;12.80;99.90;;;;;;6185395;23;20185;-80
2020/12/16 11:32:23;;;;;;;6.97;6.30;;;12.80;99.90;;;;;;6185324;23;20650;-81
2020/12/16 11:34:48;;;;;;;6.37;5.77;;;12.90;99.90;;;;;;6212417;23;20173;-81
2020/12/16 11:37:15;;;;;;;5.90;5.30;;;12.90;99.90;;;;;;6212221;23;20614;-82
2020/12/16 11:39:41;;;;;;;6.47;5.45;;;13.00;99.90;;;;;;6212249;23;20184;-80
2020/12/16 11:42:07;;;;;;;6.97;5.30;;;13.00;99.90;;;;;;6213627;23;20145;-82
2020/12/16 11:44:34;;;;;;;6.18;5.68;;;13.10;99.90;;;;;;6185584;23;20188;-81
2020/12/16 11:47:03;;;;;;;5.43;4.90;;;13.20;99.90;;;;;;6213795;23;20141;-82
2020/12/16 11:49:29;;;;;;;6.10;5.60;;;13.20;99.90;;;;;;6214208;23;20520;-82
2020/12/16 11:51:55;;;;;;;6.50;5.80;;;13.30;99.90;;;;;;6212565;23;20172;-83
2020/12/16 11:54:22;;;;;;;5.73;5.23;;;13.40;99.90;;;;;;6211733;23;20152;-81
2020/12/16 11:56:48;;;;;;;6.30;5.67;;;13.40;99.90;;;;;;6185323;23;20542;-81
2020/12/16 11:59:14;;;;;;;5.23;4.83;;;13.40;99.90;;;;;;6184093;23;20680;-82
2020/12/16 12:01:42;;;;;;;5.07;4.67;;;13.40;99.90;;;;;;6211341;23;20596;-81
2020/12/16 12:04:09;;;;;;;5.67;5.20;;;13.50;99.90;;;;;;6212276;23;20586;-80
2020/12/16 12:06:34;;;;;;;5.50;4.87;;;13.60;99.90;;;;;;6161028;23;20528;-82
2020/12/16 12:09:00;;;;;;;5.00;4.60;;;13.70;99.90;;;;;;6160677;23;20552;-81
2020/12/16 12:11:28;;;;;;;8.30;6.60;;;13.70;99.90;;;;;;6212280;23;20542;-81
2020/12/16 12:13:54;;;;;;;6.13;5.53;;;13.80;99.90;;;;;;6211896;23;20544;-82
2020/12/16 12:16:19;;;;;;;6.30;5.70;;;13.80;99.90;;;;;;6180445;23;20584;-82
2020/12/16 12:18:45;;;;;;;5.43;5.03;;;13.80;99.90;;;;;;6182338;23;20647;-82
2020/12/16 12:21:15;;;;;;;6.00;5.40;;;13.90;99.90;;;;;;6179817;23;20149;-83
2020/12/16 12:23:42;;;;;;;6.43;5.83;;;13.80;99.90;;;;;;6155858;23;20544;-83
2020/12/16 12:26:07;;;;;;;6.93;5.47;;;13.80;99.90;;;;;;6181803;23;20561;-83
2020/12/16 12:28:33;;;;;;;6.37;5.77;;;13.80;99.90;;;;;;6180686;23;20522;-85
2020/12/16 12:30:59;;;;;;;5.17;4.73;;;13.80;99.90;;;;;;6181797;23;20561;-85
2020/12/16 12:33:25;;;;;;;5.80;5.27;;;13.90;99.90;;;;;;6181891;23;20588;-84
2020/12/16 12:35:51;;;;;;;4.80;4.40;;;13.90;99.90;;;;;;6155098;23;20627;-82
2020/12/16 12:38:18;;;;;;;5.83;4.60;;;13.90;99.90;;;;;;6181089;23;20580;-83
2020/12/16 12:40:44;;;;;;;6.73;5.17;;;13.90;99.90;;;;;;6155224;23;20553;-82
2020/12/16 12:43:11;;;;;;;6.60;5.40;;;13.90;99.90;;;;;;6179127;23;20603;-83
2020/12/16 12:45:37;;;;;;;5.33;4.93;;;14.00;99.90;;;;;;6181242;23;20572;-82
2020/12/16 12:48:02;;;;;;;5.20;4.63;;;14.00;99.90;;;;;;6179165;23;21147;-81
2020/12/16 12:50:28;;;;;;;5.30;4.90;;;14.00;99.90;;;;;;6179235;23;20153;-82
2020/12/16 12:52:54;;;;;;;5.60;5.10;;;14.10;99.90;;;;;;6179849;23;20537;-82
2020/12/16 12:55:20;;;;;;;5.13;4.73;;;14.10;99.90;;;;;;6181226;23;20941;-82
2020/12/16 12:57:46;;;;;;;9.63;8.63;;;14.10;99.90;;;;;;6180261;23;20537;-82
2020/12/16 13:00:14;;;;;;;5.67;5.17;;;14.00;99.90;;;;;;6154981;23;20865;-83
2020/12/16 13:02:39;;;;;;;5.57;5.17;;;14.00;99.90;;;;;;6181563;23;20153;-83
2020/12/16 13:05:08;;;;;;;6.27;5.27;;;14.00;99.90;;;;;;6155340;23;20616;-83
2020/12/16 13:07:35;;;;;;;6.13;4.13;;;14.00;99.90;;;;;;6180899;23;20853;-82
2020/12/16 13:10:03;;;;;;;7.70;5.80;;;14.00;99.90;;;;;;6180195;23;20914;-84